sensor_id;sensor_type;location;lat;lon;timestamp;temperature;humidity
23051;DHT22;11693;51.358;12.410;2022-09-09T00:00:32;19.90;99.90
23051;DHT22;11693;51.358;12.410;2022-09-09T00:03:22;19.90;99.90
23051;DHT22;11693;51.358;12.410;2022-09-09T00:05:56;20.00;99.90
23051;DHT22;11693;51.358;12.410;2022-09-09T00:08:53;19.90;99.90
23051;DHT22;11693;51.358;12.410;2022-09-09T00:11:29;19.90;99.90
23051;DHT22;11693;51.358;12.410;2022-09-09T00:13:57;19.90;99.90
23051;DHT22;11693;51.358;12.410;2022-09-09T00:16:28;19.90;99.90
23051;DHT22;11693;51.358;12.410;2022-09-09T00:19:19;19.90;99.90
23051;DHT22;11693;51.358;12.410;2022-09-09T00:24:49;19.90;99.90
23051;DHT22;11693;51.358;12.410;2022-09-09T00:29:51;19.90;99.90
23051;DHT22;11693;51.358;12.410;2022-09-09T00:32:20;19.90;99.90
23051;DHT22;11693;51.358;12.410;2022-09-09T00:35:02;19.80;99.90
23051;DHT22;11693;51.358;12.410;2022-09-09T00:37:28;19.80;99.90
23051;DHT22;11693;51.358;12.410;2022-09-09T00:39:59;19.80;99.90
23051;DHT22;11693;51.358;12.410;2022-09-09T00:45:19;19.70;99.90
23051;DHT22;11693;51.358;12.410;2022-09-09T00:47:53;19.70;99.90
23051;DHT22;11693;51.358;12.410;2022-09-09T00:53:37;19.70;99.90
23051;DHT22;11693;51.358;12.410;2022-09-09T00:56:18;19.60;99.90
23051;DHT22;11693;51.358;12.410;2022-09-09T00:59:03;19.60;99.90
23051;DHT22;11693;51.358;12.410;2022-09-09T01:01:33;19.70;99.90
23051;DHT22;11693;51.358;12.410;2022-09-09T01:03:58;19.70;99.90
23051;DHT22;11693;51.358;12.410;2022-09-09T01:06:31;19.70;99.90
23051;DHT22;11693;51.358;12.410;2022-09-09T01:09:18;19.60;99.90
23051;DHT22;11693;51.358;12.410;2022-09-09T01:12:23;19.60;99.90
23051;DHT22;11693;51.358;12.410;2022-09-09T01:14:52;19.50;99.90
23051;DHT22;11693;51.358;12.410;2022-09-09T01:20:50;19.50;99.90
23051;DHT22;11693;51.358;12.410;2022-09-09T01:26:48;19.40;99.90
23051;DHT22;11693;51.358;12.410;2022-09-09T01:29:09;19.30;99.90
23051;DHT22;11693;51.358;12.410;2022-09-09T01:34:09;19.30;99.90
23051;DHT22;11693;51.358;12.410;2022-09-09T01:36:41;19.40;99.90
23051;DHT22;11693;51.358;12.410;2022-09-09T01:39:07;19.50;99.90
23051;DHT22;11693;51.358;12.410;2022-09-09T01:41:33;19.50;99.90
23051;DHT22;11693;51.358;12.410;2022-09-09T01:43:59;19.60;99.90
23051;DHT22;11693;51.358;12.410;2022-09-09T01:46:24;19.60;99.90
23051;DHT22;11693;51.358;12.410;2022-09-09T01:48:52;19.50;99.90
23051;DHT22;11693;51.358;12.410;2022-09-09T01:51:18;19.50;99.90
23051;DHT22;11693;51.358;12.410;2022-09-09T01:53:45;19.50;99.90
23051;DHT22;11693;51.358;12.410;2022-09-09T02:01:34;19.30;99.90
23051;DHT22;11693;51.358;12.410;2022-09-09T02:04:04;19.30;99.90
23051;DHT22;11693;51.358;12.410;2022-09-09T02:06:38;19.30;99.90
23051;DHT22;11693;51.358;12.410;2022-09-09T02:09:07;19.40;99.90
23051;DHT22;11693;51.358;12.410;2022-09-09T02:11:35;19.50;99.90
23051;DHT22;11693;51.358;12.410;2022-09-09T02:14:10;19.50;99.90
23051;DHT22;11693;51.358;12.410;2022-09-09T02:16:44;19.50;99.90
23051;DHT22;11693;51.358;12.410;2022-09-09T02:21:52;19.50;99.90
23051;DHT22;11693;51.358;12.410;2022-09-09T02:24:20;19.50;99.90
23051;DHT22;11693;51.358;12.410;2022-09-09T02:26:49;19.50;99.90
23051;DHT22;11693;51.358;12.410;2022-09-09T02:29:28;19.60;99.90
23051;DHT22;11693;51.358;12.410;2022-09-09T02:31:59;19.50;99.90
23051;DHT22;11693;51.358;12.410;2022-09-09T02:34:30;19.40;99.90
23051;DHT22;11693;51.358;12.410;2022-09-09T02:36:57;19.30;99.90
23051;DHT22;11693;51.358;12.410;2022-09-09T02:39:25;19.30;99.90
23051;DHT22;11693;51.358;12.410;2022-09-09T02:41:50;19.30;99.90
23051;DHT22;11693;51.358;12.410;2022-09-09T02:44:18;19.20;99.90
23051;DHT22;11693;51.358;12.410;2022-09-09T02:55:33;19.20;99.90
23051;DHT22;11693;51.358;12.410;2022-09-09T02:58:04;19.00;99.90
23051;DHT22;11693;51.358;12.410;2022-09-09T03:00:32;19.00;99.90
23051;DHT22;11693;51.358;12.410;2022-09-09T03:02:58;19.10;99.90
23051;DHT22;11693;51.358;12.410;2022-09-09T03:05:24;19.20;99.90
23051;DHT22;11693;51.358;12.410;2022-09-09T03:07:49;19.10;99.90
23051;DHT22;11693;51.358;12.410;2022-09-09T03:10:16;19.00;99.90
23051;DHT22;11693;51.358;12.410;2022-09-09T03:12:43;19.00;99.90
23051;DHT22;11693;51.358;12.410;2022-09-09T03:15:09;19.00;99.90
23051;DHT22;11693;51.358;12.410;2022-09-09T03:17:35;19.10;99.90
23051;DHT22;11693;51.358;12.410;2022-09-09T03:20:02;19.20;99.90
23051;DHT22;11693;51.358;12.410;2022-09-09T03:22:28;19.20;99.90
23051;DHT22;11693;51.358;12.410;2022-09-09T03:24:53;19.20;99.90
23051;DHT22;11693;51.358;12.410;2022-09-09T03:27:19;19.10;99.90
23051;DHT22;11693;51.358;12.410;2022-09-09T03:29:46;19.10;99.90
23051;DHT22;11693;51.358;12.410;2022-09-09T03:32:12;19.10;99.90
23051;DHT22;11693;51.358;12.410;2022-09-09T03:34:38;19.10;99.90
23051;DHT22;11693;51.358;12.410;2022-09-09T03:37:06;19.00;99.90
23051;DHT22;11693;51.358;12.410;2022-09-09T03:39:32;19.10;99.90
23051;DHT22;11693;51.358;12.410;2022-09-09T03:41:58;19.10;99.90
23051;DHT22;11693;51.358;12.410;2022-09-09T03:44:23;19.10;99.90
23051;DHT22;11693;51.358;12.410;2022-09-09T03:46:49;19.00;99.90
23051;DHT22;11693;51.358;12.410;2022-09-09T03:49:14;19.00;99.90
23051;DHT22;11693;51.358;12.410;2022-09-09T03:51:41;19.10;99.90
23051;DHT22;11693;51.358;12.410;2022-09-09T03:54:07;19.10;99.90
23051;DHT22;11693;51.358;12.410;2022-09-09T03:56:35;19.00;99.90
23051;DHT22;11693;51.358;12.410;2022-09-09T03:59:02;19.20;99.90
23051;DHT22;11693;51.358;12.410;2022-09-09T04:01:28;19.00;99.90
23051;DHT22;11693;51.358;12.410;2022-09-09T04:03:53;19.10;99.90
23051;DHT22;11693;51.358;12.410;2022-09-09T04:06:20;19.00;99.90
23051;DHT22;11693;51.358;12.410;2022-09-09T04:08:46;18.90;99.90
23051;DHT22;11693;51.358;12.410;2022-09-09T04:11:14;19.00;99.90
23051;DHT22;11693;51.358;12.410;2022-09-09T04:13:40;19.00;99.90
23051;DHT22;11693;51.358;12.410;2022-09-09T04:16:08;19.00;99.90
23051;DHT22;11693;51.358;12.410;2022-09-09T04:18:34;19.00;99.90
23051;DHT22;11693;51.358;12.410;2022-09-09T04:21:00;18.90;99.90
23051;DHT22;11693;51.358;12.410;2022-09-09T04:23:28;18.80;99.90
23051;DHT22;11693;51.358;12.410;2022-09-09T04:25:58;19.00;99.90
23051;DHT22;11693;51.358;12.410;2022-09-09T04:28:25;19.00;99.90
23051;DHT22;11693;51.358;12.410;2022-09-09T04:30:51;19.00;99.90
23051;DHT22;11693;51.358;12.410;2022-09-09T04:33:18;19.00;99.90
23051;DHT22;11693;51.358;12.410;2022-09-09T04:35:49;19.00;99.90
23051;DHT22;11693;51.358;12.410;2022-09-09T04:38:16;18.90;99.90
23051;DHT22;11693;51.358;12.410;2022-09-09T04:40:49;19.00;99.90
23051;DHT22;11693;51.358;12.410;2022-09-09T04:43:16;19.00;99.90
23051;DHT22;11693;51.358;12.410;2022-09-09T04:45:47;19.10;99.90
23051;DHT22;11693;51.358;12.410;2022-09-09T04:48:14;19.00;99.90
23051;DHT22;11693;51.358;12.410;2022-09-09T04:50:39;19.10;99.90
23051;DHT22;11693;51.358;12.410;2022-09-09T04:53:06;19.20;99.90
23051;DHT22;11693;51.358;12.410;2022-09-09T04:55:32;19.40;99.90
23051;DHT22;11693;51.358;12.410;2022-09-09T04:58:06;19.50;99.90
23051;DHT22;11693;51.358;12.410;2022-09-09T05:00:33;19.60;99.90
23051;DHT22;11693;51.358;12.410;2022-09-09T05:03:02;19.70;99.90
23051;DHT22;11693;51.358;12.410;2022-09-09T05:05:28;19.60;99.90
23051;DHT22;11693;51.358;12.410;2022-09-09T05:07:53;19.60;99.90
23051;DHT22;11693;51.358;12.410;2022-09-09T05:10:19;19.50;99.90
23051;DHT22;11693;51.358;12.410;2022-09-09T05:12:52;19.50;99.90
23051;DHT22;11693;51.358;12.410;2022-09-09T05:15:18;19.40;99.90
23051;DHT22;11693;51.358;12.410;2022-09-09T05:17:46;19.60;99.90
23051;DHT22;11693;51.358;12.410;2022-09-09T05:20:11;19.70;99.90
23051;DHT22;11693;51.358;12.410;2022-09-09T05:22:37;20.00;99.90
23051;DHT22;11693;51.358;12.410;2022-09-09T05:25:03;20.10;99.90
23051;DHT22;11693;51.358;12.410;2022-09-09T05:27:29;20.40;99.90
23051;DHT22;11693;51.358;12.410;2022-09-09T05:29:56;20.50;99.90
23051;DHT22;11693;51.358;12.410;2022-09-09T05:32:26;20.60;99.90
23051;DHT22;11693;51.358;12.410;2022-09-09T05:34:51;20.60;99.90
23051;DHT22;11693;51.358;12.410;2022-09-09T05:37:18;20.60;99.90
23051;DHT22;11693;51.358;12.410;2022-09-09T05:39:43;20.60;99.90
23051;DHT22;11693;51.358;12.410;2022-09-09T05:42:09;20.50;99.90
23051;DHT22;11693;51.358;12.410;2022-09-09T05:44:35;20.50;99.90
23051;DHT22;11693;51.358;12.410;2022-09-09T05:47:00;20.50;99.90
23051;DHT22;11693;51.358;12.410;2022-09-09T05:49:26;20.60;99.90
23051;DHT22;11693;51.358;12.410;2022-09-09T05:51:52;20.50;99.90
23051;DHT22;11693;51.358;12.410;2022-09-09T05:54:18;20.60;99.90
23051;DHT22;11693;51.358;12.410;2022-09-09T05:56:44;20.70;99.90
23051;DHT22;11693;51.358;12.410;2022-09-09T05:59:10;20.80;99.90
23051;DHT22;11693;51.358;12.410;2022-09-09T06:01:37;20.80;99.90
23051;DHT22;11693;51.358;12.410;2022-09-09T06:04:06;20.80;99.90
23051;DHT22;11693;51.358;12.410;2022-09-09T06:06:34;20.80;99.90
23051;DHT22;11693;51.358;12.410;2022-09-09T06:09:06;20.80;99.90
23051;DHT22;11693;51.358;12.410;2022-09-09T06:11:35;20.80;99.90
23051;DHT22;11693;51.358;12.410;2022-09-09T06:14:02;20.90;99.90
23051;DHT22;11693;51.358;12.410;2022-09-09T06:16:29;20.90;99.90
23051;DHT22;11693;51.358;12.410;2022-09-09T06:18:56;21.10;99.90
23051;DHT22;11693;51.358;12.410;2022-09-09T06:21:28;21.10;99.90
23051;DHT22;11693;51.358;12.410;2022-09-09T06:23:55;21.00;99.90
23051;DHT22;11693;51.358;12.410;2022-09-09T06:26:23;21.10;99.90
23051;DHT22;11693;51.358;12.410;2022-09-09T06:28:50;21.20;99.90
23051;DHT22;11693;51.358;12.410;2022-09-09T06:31:22;21.20;99.90
23051;DHT22;11693;51.358;12.410;2022-09-09T06:33:53;21.20;99.90
23051;DHT22;11693;51.358;12.410;2022-09-09T06:36:22;21.20;99.90
23051;DHT22;11693;51.358;12.410;2022-09-09T06:38:48;21.20;99.90
23051;DHT22;11693;51.358;12.410;2022-09-09T06:41:17;21.20;99.90
23051;DHT22;11693;51.358;12.410;2022-09-09T06:43:44;21.30;99.90
23051;DHT22;11693;51.358;12.410;2022-09-09T06:46:15;21.40;99.90
23051;DHT22;11693;51.358;12.410;2022-09-09T06:48:42;21.40;99.90
23051;DHT22;11693;51.358;12.410;2022-09-09T06:51:20;21.50;99.90
23051;DHT22;11693;51.358;12.410;2022-09-09T06:53:54;21.60;99.90
23051;DHT22;11693;51.358;12.410;2022-09-09T06:56:37;21.70;99.90
23051;DHT22;11693;51.358;12.410;2022-09-09T06:59:06;21.80;99.90
23051;DHT22;11693;51.358;12.410;2022-09-09T07:01:41;21.80;99.90
23051;DHT22;11693;51.358;12.410;2022-09-09T07:04:07;22.00;99.90
23051;DHT22;11693;51.358;12.410;2022-09-09T07:06:36;22.20;99.90
23051;DHT22;11693;51.358;12.410;2022-09-09T07:09:05;22.40;99.90
23051;DHT22;11693;51.358;12.410;2022-09-09T07:11:33;22.40;99.90
23051;DHT22;11693;51.358;12.410;2022-09-09T07:14:00;22.60;99.90
23051;DHT22;11693;51.358;12.410;2022-09-09T07:16:26;22.90;99.90
23051;DHT22;11693;51.358;12.410;2022-09-09T07:18:53;22.80;99.90
23051;DHT22;11693;51.358;12.410;2022-09-09T07:21:24;22.70;99.90
23051;DHT22;11693;51.358;12.410;2022-09-09T07:23:52;23.00;99.90
23051;DHT22;11693;51.358;12.410;2022-09-09T07:26:20;23.30;99.90
23051;DHT22;11693;51.358;12.410;2022-09-09T07:28:46;23.70;99.90
23051;DHT22;11693;51.358;12.410;2022-09-09T07:31:18;24.10;99.90
23051;DHT22;11693;51.358;12.410;2022-09-09T07:33:44;24.50;99.90
23051;DHT22;11693;51.358;12.410;2022-09-09T07:38:54;25.20;99.90
23051;DHT22;11693;51.358;12.410;2022-09-09T07:41:25;25.50;99.90
23051;DHT22;11693;51.358;12.410;2022-09-09T07:43:52;25.70;99.90
23051;DHT22;11693;51.358;12.410;2022-09-09T07:46:21;25.90;99.90
23051;DHT22;11693;51.358;12.410;2022-09-09T07:48:49;26.10;99.90
23051;DHT22;11693;51.358;12.410;2022-09-09T07:51:18;26.20;99.90
23051;DHT22;11693;51.358;12.410;2022-09-09T07:53:45;26.30;99.90
23051;DHT22;11693;51.358;12.410;2022-09-09T07:56:14;26.30;99.90
23051;DHT22;11693;51.358;12.410;2022-09-09T07:58:40;26.20;99.90
23051;DHT22;11693;51.358;12.410;2022-09-09T08:01:15;26.30;99.90
23051;DHT22;11693;51.358;12.410;2022-09-09T08:03:44;26.70;99.90
23051;DHT22;11693;51.358;12.410;2022-09-09T08:06:10;26.60;99.60
23051;DHT22;11693;51.358;12.410;2022-09-09T08:08:38;26.40;99.90
23051;DHT22;11693;51.358;12.410;2022-09-09T08:11:14;26.50;99.90
23051;DHT22;11693;51.358;12.410;2022-09-09T08:13:42;26.80;99.90
23051;DHT22;11693;51.358;12.410;2022-09-09T08:16:25;27.20;99.40
23051;DHT22;11693;51.358;12.410;2022-09-09T08:18:52;27.50;98.40
23051;DHT22;11693;51.358;12.410;2022-09-09T08:21:22;27.80;98.50
23051;DHT22;11693;51.358;12.410;2022-09-09T08:23:51;28.20;97.80
23051;DHT22;11693;51.358;12.410;2022-09-09T08:26:19;28.40;97.30
23051;DHT22;11693;51.358;12.410;2022-09-09T08:28:48;28.30;96.70
23051;DHT22;11693;51.358;12.410;2022-09-09T08:31:19;28.00;96.90
23051;DHT22;11693;51.358;12.410;2022-09-09T08:33:44;27.80;96.70
23051;DHT22;11693;51.358;12.410;2022-09-09T08:36:19;27.70;97.20
23051;DHT22;11693;51.358;12.410;2022-09-09T08:38:50;27.50;96.80
23051;DHT22;11693;51.358;12.410;2022-09-09T08:44:23;27.50;96.90
23051;DHT22;11693;51.358;12.410;2022-09-09T08:49:49;27.70;97.70
23051;DHT22;11693;51.358;12.410;2022-09-09T08:52:22;27.80;97.50
23051;DHT22;11693;51.358;12.410;2022-09-09T08:54:50;28.10;97.00
23051;DHT22;11693;51.358;12.410;2022-09-09T08:57:27;28.30;96.10
23051;DHT22;11693;51.358;12.410;2022-09-09T08:59:54;28.40;96.70
23051;DHT22;11693;51.358;12.410;2022-09-09T09:05:31;28.60;95.40
23051;DHT22;11693;51.358;12.410;2022-09-09T09:08:30;28.50;95.20
23051;DHT22;11693;51.358;12.410;2022-09-09T09:10:59;28.60;95.70
23051;DHT22;11693;51.358;12.410;2022-09-09T09:19:14;29.50;93.30
23051;DHT22;11693;51.358;12.410;2022-09-09T09:27:33;29.60;93.10
23051;DHT22;11693;51.358;12.410;2022-09-09T09:30:12;29.70;92.80
23051;DHT22;11693;51.358;12.410;2022-09-09T09:32:48;29.70;92.40
23051;DHT22;11693;51.358;12.410;2022-09-09T09:35:15;29.70;92.00
23051;DHT22;11693;51.358;12.410;2022-09-09T09:37:41;29.70;92.80
23051;DHT22;11693;51.358;12.410;2022-09-09T09:40:20;29.70;92.60
23051;DHT22;11693;51.358;12.410;2022-09-09T09:43:02;29.60;92.30
23051;DHT22;11693;51.358;12.410;2022-09-09T09:45:43;29.70;91.90
23051;DHT22;11693;51.358;12.410;2022-09-09T09:48:12;30.00;92.10
23051;DHT22;11693;51.358;12.410;2022-09-09T09:53:23;30.40;90.00
23051;DHT22;11693;51.358;12.410;2022-09-09T09:56:09;30.30;89.00
23051;DHT22;11693;51.358;12.410;2022-09-09T10:01:28;30.10;88.70
23051;DHT22;11693;51.358;12.410;2022-09-09T10:06:37;29.90;90.40
23051;DHT22;11693;51.358;12.410;2022-09-09T10:09:18;30.20;90.20
23051;DHT22;11693;51.358;12.410;2022-09-09T10:11:55;30.20;90.70
23051;DHT22;11693;51.358;12.410;2022-09-09T10:20:21;29.90;88.10
23051;DHT22;11693;51.358;12.410;2022-09-09T10:23:26;29.90;88.60
23051;DHT22;11693;51.358;12.410;2022-09-09T10:26:03;30.10;89.60
23051;DHT22;11693;51.358;12.410;2022-09-09T10:32:12;30.10;89.80
23051;DHT22;11693;51.358;12.410;2022-09-09T10:37:12;30.80;90.20
23051;DHT22;11693;51.358;12.410;2022-09-09T10:39:42;31.10;87.60
23051;DHT22;11693;51.358;12.410;2022-09-09T10:42:15;31.30;87.20
23051;DHT22;11693;51.358;12.410;2022-09-09T10:47:33;31.70;83.10
23051;DHT22;11693;51.358;12.410;2022-09-09T10:55:42;31.00;84.90
23051;DHT22;11693;51.358;12.410;2022-09-09T10:58:14;31.20;88.30
23051;DHT22;11693;51.358;12.410;2022-09-09T11:00:51;31.20;84.80
23051;DHT22;11693;51.358;12.410;2022-09-09T11:03:25;31.10;83.70
23051;DHT22;11693;51.358;12.410;2022-09-09T11:05:57;30.80;84.20
23051;DHT22;11693;51.358;12.410;2022-09-09T11:08:26;31.00;85.60
23051;DHT22;11693;51.358;12.410;2022-09-09T11:13:46;31.30;84.10
23051;DHT22;11693;51.358;12.410;2022-09-09T11:19:22;31.50;82.30
23051;DHT22;11693;51.358;12.410;2022-09-09T11:21:50;32.00;83.10
23051;DHT22;11693;51.358;12.410;2022-09-09T11:24:39;32.60;79.20
23051;DHT22;11693;51.358;12.410;2022-09-09T11:27:17;32.20;78.90
23051;DHT22;11693;51.358;12.410;2022-09-09T11:32:58;31.10;80.00
23051;DHT22;11693;51.358;12.410;2022-09-09T11:40:40;31.20;81.20
23051;DHT22;11693;51.358;12.410;2022-09-09T11:43:17;32.40;78.30
23051;DHT22;11693;51.358;12.410;2022-09-09T11:45:52;34.10;77.50
23051;DHT22;11693;51.358;12.410;2022-09-09T11:50:58;36.10;67.50
23051;DHT22;11693;51.358;12.410;2022-09-09T11:53:24;35.60;64.90
23051;DHT22;11693;51.358;12.410;2022-09-09T11:56:09;34.20;65.00
23051;DHT22;11693;51.358;12.410;2022-09-09T11:58:40;32.70;68.10
23051;DHT22;11693;51.358;12.410;2022-09-09T12:01:59;32.20;68.00
23051;DHT22;11693;51.358;12.410;2022-09-09T12:06:56;33.20;67.10
23051;DHT22;11693;51.358;12.410;2022-09-09T12:14:38;35.60;60.80
23051;DHT22;11693;51.358;12.410;2022-09-09T12:17:20;35.70;63.00
23051;DHT22;11693;51.358;12.410;2022-09-09T12:19:46;36.20;61.90
23051;DHT22;11693;51.358;12.410;2022-09-09T12:22:38;36.80;60.20
23051;DHT22;11693;51.358;12.410;2022-09-09T12:31:01;35.80;58.90
23051;DHT22;11693;51.358;12.410;2022-09-09T12:33:35;35.60;59.90
23051;DHT22;11693;51.358;12.410;2022-09-09T12:36:01;36.00;59.30
23051;DHT22;11693;51.358;12.410;2022-09-09T12:38:36;36.00;59.50
23051;DHT22;11693;51.358;12.410;2022-09-09T12:41:02;35.80;58.60
23051;DHT22;11693;51.358;12.410;2022-09-09T12:43:28;36.00;59.80
23051;DHT22;11693;51.358;12.410;2022-09-09T12:46:07;36.70;57.20
23051;DHT22;11693;51.358;12.410;2022-09-09T12:48:37;37.10;56.20
23051;DHT22;11693;51.358;12.410;2022-09-09T12:51:16;37.00;54.90
23051;DHT22;11693;51.358;12.410;2022-09-09T12:53:42;36.90;54.20
23051;DHT22;11693;51.358;12.410;2022-09-09T12:56:19;37.30;54.30
23051;DHT22;11693;51.358;12.410;2022-09-09T12:58:48;37.30;53.30
23051;DHT22;11693;51.358;12.410;2022-09-09T13:01:28;37.80;53.00
23051;DHT22;11693;51.358;12.410;2022-09-09T13:03:54;38.40;52.20
23051;DHT22;11693;51.358;12.410;2022-09-09T13:06:25;38.90;51.60
23051;DHT22;11693;51.358;12.410;2022-09-09T13:08:55;39.30;50.80
23051;DHT22;11693;51.358;12.410;2022-09-09T13:13:57;39.50;48.90
23051;DHT22;11693;51.358;12.410;2022-09-09T13:19:08;37.80;50.80
23051;DHT22;11693;51.358;12.410;2022-09-09T13:21:35;37.40;50.60
23051;DHT22;11693;51.358;12.410;2022-09-09T13:24:05;36.50;52.00
23051;DHT22;11693;51.358;12.410;2022-09-09T13:26:33;35.20;53.30
23051;DHT22;11693;51.358;12.410;2022-09-09T13:29:17;33.60;54.60
23051;DHT22;11693;51.358;12.410;2022-09-09T13:31:44;31.90;56.40
23051;DHT22;11693;51.358;12.410;2022-09-09T13:34:22;30.90;58.70
23051;DHT22;11693;51.358;12.410;2022-09-09T13:37:04;30.30;59.90
23051;DHT22;11693;51.358;12.410;2022-09-09T13:39:33;29.70;62.90
23051;DHT22;11693;51.358;12.410;2022-09-09T13:41:59;29.40;62.20
23051;DHT22;11693;51.358;12.410;2022-09-09T13:44:27;29.20;63.80
23051;DHT22;11693;51.358;12.410;2022-09-09T13:47:20;29.10;65.60
23051;DHT22;11693;51.358;12.410;2022-09-09T13:49:46;29.00;65.30
23051;DHT22;11693;51.358;12.410;2022-09-09T13:52:17;28.90;67.20
23051;DHT22;11693;51.358;12.410;2022-09-09T13:54:48;28.80;66.80
23051;DHT22;11693;51.358;12.410;2022-09-09T13:57:20;28.70;68.70
23051;DHT22;11693;51.358;12.410;2022-09-09T13:59:46;28.60;68.90
23051;DHT22;11693;51.358;12.410;2022-09-09T14:02:13;28.40;71.90
23051;DHT22;11693;51.358;12.410;2022-09-09T14:04:39;28.00;73.30
23051;DHT22;11693;51.358;12.410;2022-09-09T14:07:14;27.70;78.60
23051;DHT22;11693;51.358;12.410;2022-09-09T14:09:41;27.10;83.50
23051;DHT22;11693;51.358;12.410;2022-09-09T14:12:13;26.20;89.00
23051;DHT22;11693;51.358;12.410;2022-09-09T14:14:40;24.80;94.70
23051;DHT22;11693;51.358;12.410;2022-09-09T14:17:08;22.60;99.90
23051;DHT22;11693;51.358;12.410;2022-09-09T14:19:34;21.30;99.90
23051;DHT22;11693;51.358;12.410;2022-09-09T14:22:00;20.70;99.90
23051;DHT22;11693;51.358;12.410;2022-09-09T14:24:26;20.50;99.90
23051;DHT22;11693;51.358;12.410;2022-09-09T14:26:52;20.40;99.90
23051;DHT22;11693;51.358;12.410;2022-09-09T14:29:18;20.50;99.90
23051;DHT22;11693;51.358;12.410;2022-09-09T14:31:43;20.70;99.90
23051;DHT22;11693;51.358;12.410;2022-09-09T14:34:09;20.80;99.90
23051;DHT22;11693;51.358;12.410;2022-09-09T14:36:39;21.20;99.90
23051;DHT22;11693;51.358;12.410;2022-09-09T14:39:05;21.40;99.90
23051;DHT22;11693;51.358;12.410;2022-09-09T14:41:31;21.60;99.90
23051;DHT22;11693;51.358;12.410;2022-09-09T14:43:57;21.90;99.90
23051;DHT22;11693;51.358;12.410;2022-09-09T14:46:23;22.20;99.90
23051;DHT22;11693;51.358;12.410;2022-09-09T14:48:49;22.50;99.90
23051;DHT22;11693;51.358;12.410;2022-09-09T14:51:19;22.80;99.90
23051;DHT22;11693;51.358;12.410;2022-09-09T14:53:46;23.10;99.90
23051;DHT22;11693;51.358;12.410;2022-09-09T14:56:13;23.40;99.90
23051;DHT22;11693;51.358;12.410;2022-09-09T14:58:39;23.60;99.90
23051;DHT22;11693;51.358;12.410;2022-09-09T15:01:07;23.80;99.90
23051;DHT22;11693;51.358;12.410;2022-09-09T15:03:33;24.00;99.90
23051;DHT22;11693;51.358;12.410;2022-09-09T15:06:08;24.10;99.90
23051;DHT22;11693;51.358;12.410;2022-09-09T15:08:35;24.20;99.90
23051;DHT22;11693;51.358;12.410;2022-09-09T15:11:03;24.40;99.90
23051;DHT22;11693;51.358;12.410;2022-09-09T15:13:29;24.50;99.90
23051;DHT22;11693;51.358;12.410;2022-09-09T15:15:54;24.60;99.90
23051;DHT22;11693;51.358;12.410;2022-09-09T15:18:21;24.50;99.90
23051;DHT22;11693;51.358;12.410;2022-09-09T15:20:46;24.60;99.90
23051;DHT22;11693;51.358;12.410;2022-09-09T15:23:13;24.50;99.90
23051;DHT22;11693;51.358;12.410;2022-09-09T15:25:49;24.30;99.90
23051;DHT22;11693;51.358;12.410;2022-09-09T15:28:15;24.30;99.90
23051;DHT22;11693;51.358;12.410;2022-09-09T15:30:41;24.30;99.90
23051;DHT22;11693;51.358;12.410;2022-09-09T15:33:10;24.40;99.90
23051;DHT22;11693;51.358;12.410;2022-09-09T15:35:35;24.60;99.90
23051;DHT22;11693;51.358;12.410;2022-09-09T15:38:04;24.60;99.90
23051;DHT22;11693;51.358;12.410;2022-09-09T15:40:30;24.60;99.90
23051;DHT22;11693;51.358;12.410;2022-09-09T15:42:58;24.70;99.90
23051;DHT22;11693;51.358;12.410;2022-09-09T15:45:23;24.70;99.90
23051;DHT22;11693;51.358;12.410;2022-09-09T15:47:49;24.80;99.90
23051;DHT22;11693;51.358;12.410;2022-09-09T15:50:15;24.70;99.90
23051;DHT22;11693;51.358;12.410;2022-09-09T15:52:40;24.80;99.90
23051;DHT22;11693;51.358;12.410;2022-09-09T15:55:06;24.90;99.90
23051;DHT22;11693;51.358;12.410;2022-09-09T15:57:34;25.00;99.90
23051;DHT22;11693;51.358;12.410;2022-09-09T16:00:00;25.10;99.90
23051;DHT22;11693;51.358;12.410;2022-09-09T16:02:29;25.20;99.90
23051;DHT22;11693;51.358;12.410;2022-09-09T16:04:56;25.20;99.90
23051;DHT22;11693;51.358;12.410;2022-09-09T16:07:23;25.20;99.90
23051;DHT22;11693;51.358;12.410;2022-09-09T16:09:48;25.30;99.90
23051;DHT22;11693;51.358;12.410;2022-09-09T16:12:16;25.20;99.90
23051;DHT22;11693;51.358;12.410;2022-09-09T16:14:42;25.10;99.90
23051;DHT22;11693;51.358;12.410;2022-09-09T16:17:08;25.10;99.90
23051;DHT22;11693;51.358;12.410;2022-09-09T16:19:34;25.00;99.90
23051;DHT22;11693;51.358;12.410;2022-09-09T16:22:00;25.00;99.90
23051;DHT22;11693;51.358;12.410;2022-09-09T16:24:26;25.00;99.90
23051;DHT22;11693;51.358;12.410;2022-09-09T16:26:54;25.00;99.90
23051;DHT22;11693;51.358;12.410;2022-09-09T16:29:20;24.90;99.90
23051;DHT22;11693;51.358;12.410;2022-09-09T16:31:47;24.90;99.90
23051;DHT22;11693;51.358;12.410;2022-09-09T16:34:14;24.90;99.90
23051;DHT22;11693;51.358;12.410;2022-09-09T16:36:41;24.90;99.90
23051;DHT22;11693;51.358;12.410;2022-09-09T16:39:12;24.70;99.90
23051;DHT22;11693;51.358;12.410;2022-09-09T16:41:39;24.60;99.90
23051;DHT22;11693;51.358;12.410;2022-09-09T16:44:06;24.60;99.90
23051;DHT22;11693;51.358;12.410;2022-09-09T16:46:38;24.60;99.90
23051;DHT22;11693;51.358;12.410;2022-09-09T16:49:09;24.70;99.90
23051;DHT22;11693;51.358;12.410;2022-09-09T16:51:41;24.70;99.90
23051;DHT22;11693;51.358;12.410;2022-09-09T16:54:08;24.70;99.90
23051;DHT22;11693;51.358;12.410;2022-09-09T16:56:37;24.70;99.90
23051;DHT22;11693;51.358;12.410;2022-09-09T16:59:05;24.60;99.90
23051;DHT22;11693;51.358;12.410;2022-09-09T17:01:34;24.70;99.90
23051;DHT22;11693;51.358;12.410;2022-09-09T17:04:03;24.70;99.90
23051;DHT22;11693;51.358;12.410;2022-09-09T17:06:33;24.50;99.90
23051;DHT22;11693;51.358;12.410;2022-09-09T17:09:10;24.60;99.90
23051;DHT22;11693;51.358;12.410;2022-09-09T17:11:37;24.50;99.90
23051;DHT22;11693;51.358;12.410;2022-09-09T17:14:04;24.50;99.90
23051;DHT22;11693;51.358;12.410;2022-09-09T17:16:31;24.50;99.90
23051;DHT22;11693;51.358;12.410;2022-09-09T17:19:00;24.40;99.90
23051;DHT22;11693;51.358;12.410;2022-09-09T17:21:28;24.30;99.90
23051;DHT22;11693;51.358;12.410;2022-09-09T17:23:55;24.30;99.90
23051;DHT22;11693;51.358;12.410;2022-09-09T17:26:23;24.20;99.90
23051;DHT22;11693;51.358;12.410;2022-09-09T17:28:49;24.10;99.90
23051;DHT22;11693;51.358;12.410;2022-09-09T17:31:17;24.00;99.90
23051;DHT22;11693;51.358;12.410;2022-09-09T17:33:45;24.00;99.90
23051;DHT22;11693;51.358;12.410;2022-09-09T17:36:19;23.90;99.90